Pitt Meadows, British Columbia

1:15 PM PDT on July 28, 2016 (GMT -0700)
Pitt Meadows Casa de Douglas | | Change Station

Elev 66 ft 49.22 °N, 122.69 °W | Updated 14 minutes ago

Partly Cloudy
Partly Cloudy
86.4 °F
Feels Like 89 °F
N
3.1
Wind Variable Wind from NNW

Today
High -- | Low -- °F
--% Chance of Precip.
Yesterday
High -- | Low -- °F
Precip. -- in
Pressure 30.09 in
Visibility 30.0 miles
Clouds Few 4500 ft
Few 18000 ft
Heat Index 89 °F
Dew Point 67 °F
Humidity 52%
Rainfall 0.00 in
Snow Depth Not available.
5:38 AM 8:55 PM
Waning Crescent, 29% visible
METAR CYXX 282000Z 21010KT 150V240 30SM FEW045 FEW180 28/18 A3009 RMK CU1AC1 CU TR AC TR SLP190 DENSITY ALT 1500FT
Pressure 30.09 in
Visibility 30.0 miles
Clouds Few 4500 ft
Few 18000 ft
Heat Index 89 °F
Dew Point 67 °F
Humidity 52%
Rainfall 0.00 in
Snow Depth Not available.
5:38 AM 8:55 PM
Waning Crescent, 29% visible
METAR CYXX 282000Z 21010KT 150V240 30SM FEW045 FEW180 28/18 A3009 RMK CU1AC1 CU TR AC TR SLP190 DENSITY ALT 1500FT

10-Day Weather Forecast

Almanac

Astronomy

Jul. 28, 2016 Rise Set
Actual Time
Civil Twilight
Nautical Twilight
Astronomical Twilight
Moon
Length of Visible Light
Length of Day
Tomorrow will be .
, % of the Moon is Illuminated

Today's Extremes

Country Highs Country Lows

Community

WunderPhotos

Upload Photos

1,928,202 photos uploaded!

WunderBlog® & News

Nearby

Air Quality

  Air Quality AQ Index Pollutant
Not available.

Snow Depth

Station Depth Elevation

Earthquake Activity

City Distance Mag. Time & Date
Minimum magnitude displayed is 2.5.

Coastal Water Temperatures

Place Temperature

Stations

Nearby Weather Stations

Station Location Temp. Windchill Dew Point Humidity Wind Precip. Elev Updated Type
                   

Watches & Warnings

There are currently no watches in effect.